createdAt,value
2018-10-16T00:02:18.602Z,12.13
2018-10-16T00:04:47.814Z,12.06
2018-10-16T00:07:16.870Z,11.92
2018-10-16T00:09:45.935Z,11.82
2018-10-16T00:12:15.232Z,11.83
2018-10-16T00:14:44.339Z,11.70
2018-10-16T00:17:13.363Z,11.55
2018-10-16T00:19:42.723Z,11.45
2018-10-16T00:22:11.828Z,11.41
2018-10-16T00:24:40.840Z,11.29
2018-10-16T00:27:10.263Z,11.18
2018-10-16T00:29:39.519Z,11.11
2018-10-16T00:32:08.621Z,11.10
2018-10-16T00:34:37.655Z,10.88
2018-10-16T00:37:06.912Z,10.85
2018-10-16T00:39:35.816Z,10.77
2018-10-16T00:42:05.336Z,10.65
2018-10-16T00:44:34.588Z,10.58
2018-10-16T00:47:03.607Z,10.54
2018-10-16T00:49:33.162Z,10.47
2018-10-16T00:52:02.227Z,10.39
2018-10-16T00:54:31.375Z,10.38
2018-10-16T00:57:00.631Z,10.41
2018-10-16T00:59:29.718Z,10.37
2018-10-16T01:01:59.198Z,10.38
2018-10-16T01:04:28.310Z,10.35
2018-10-16T01:06:57.415Z,10.28
2018-10-16T01:09:26.546Z,10.18
2018-10-16T01:11:55.780Z,10.15
2018-10-16T01:14:24.992Z,10.13
2018-10-16T01:16:54.330Z,10.07
2018-10-16T01:19:23.654Z,10.07
2018-10-16T01:21:52.818Z,9.93
2018-10-16T01:24:22.267Z,9.81
2018-10-16T01:26:52.079Z,9.77
2018-10-16T01:29:21.135Z,9.76
2018-10-16T01:31:50.596Z,9.71
2018-10-16T01:34:19.699Z,9.69
2018-10-16T01:36:48.767Z,9.69
2018-10-16T01:39:18.036Z,9.75
2018-10-16T01:41:47.193Z,9.72
2018-10-16T01:44:16.271Z,9.71
2018-10-16T01:46:45.587Z,9.72
2018-10-16T01:49:14.718Z,9.60
2018-10-16T01:51:43.923Z,9.52
2018-10-16T01:54:13.091Z,9.51
2018-10-16T01:56:42.150Z,9.46
2018-10-16T01:59:11.212Z,9.44
2018-10-16T02:01:40.230Z,9.43
2018-10-16T02:04:09.313Z,9.43
2018-10-16T02:06:38.600Z,9.42
2018-10-16T02:09:10.421Z,9.40
2018-10-16T02:11:39.416Z,9.35
2018-10-16T02:14:08.645Z,9.41
2018-10-16T02:16:38.189Z,9.38
2018-10-16T02:19:07.273Z,9.41
2018-10-16T02:21:36.696Z,9.36
2018-10-16T02:24:06.014Z,9.31
2018-10-16T02:26:35.166Z,9.24
2018-10-16T02:29:04.366Z,9.20
2018-10-16T02:31:33.683Z,9.21
2018-10-16T02:34:02.866Z,9.20
2018-10-16T02:36:32.071Z,9.16
2018-10-16T02:39:01.591Z,9.17
2018-10-16T02:41:30.874Z,9.12
2018-10-16T02:44:00.731Z,9.06
2018-10-16T02:46:29.914Z,8.99
2018-10-16T02:48:59.104Z,8.96
2018-10-16T02:51:28.190Z,8.94
2018-10-16T02:53:57.367Z,8.91
2018-10-16T02:56:26.450Z,8.86
2018-10-16T02:58:55.680Z,8.89
2018-10-16T03:01:25.086Z,8.87
2018-10-16T03:03:54.292Z,8.83
2018-10-16T03:06:23.583Z,8.82
2018-10-16T03:08:53.218Z,8.86
2018-10-16T03:11:22.621Z,8.82
2018-10-16T03:13:51.677Z,8.80
2018-10-16T03:16:21.120Z,8.79
2018-10-16T03:18:50.318Z,8.81
2018-10-16T03:21:19.351Z,8.80
2018-10-16T03:23:48.684Z,8.80
2018-10-16T03:26:17.851Z,8.79
2018-10-16T03:28:47.139Z,8.75
2018-10-16T03:31:16.378Z,8.68
2018-10-16T03:33:45.642Z,8.68
2018-10-16T03:36:14.747Z,8.60
2018-10-16T03:38:43.916Z,8.60
2018-10-16T03:41:13.148Z,8.58
2018-10-16T03:43:42.050Z,8.55
2018-10-16T03:46:11.458Z,8.56
2018-10-16T03:48:40.726Z,8.58
2018-10-16T03:51:09.838Z,8.61
2018-10-16T03:53:39.291Z,8.63
2018-10-16T03:56:08.506Z,8.63
2018-10-16T03:58:37.752Z,8.65
2018-10-16T04:01:07.138Z,8.67
2018-10-16T04:03:36.147Z,8.68
2018-10-16T04:06:05.235Z,8.68
2018-10-16T04:08:34.451Z,8.79
2018-10-16T04:11:03.586Z,8.73
2018-10-16T04:13:32.635Z,8.66
2018-10-16T04:16:01.834Z,8.51
2018-10-16T04:18:30.903Z,8.47
2018-10-16T04:20:59.959Z,8.48
2018-10-16T04:23:29.147Z,8.37
2018-10-16T04:25:58.419Z,8.27
2018-10-16T04:28:27.731Z,8.40
2018-10-16T04:30:57.244Z,8.28
2018-10-16T04:33:26.411Z,8.18
2018-10-16T04:35:55.511Z,8.18
2018-10-16T04:38:24.647Z,8.18
2018-10-16T04:40:53.774Z,8.24
2018-10-16T04:43:23.042Z,8.24
2018-10-16T04:45:52.236Z,8.25
2018-10-16T04:48:21.617Z,8.29
2018-10-16T04:50:50.919Z,8.35
2018-10-16T04:53:20.015Z,8.47
2018-10-16T04:55:49.019Z,8.58
2018-10-16T04:58:18.211Z,8.74
2018-10-16T05:00:47.602Z,8.94
2018-10-16T05:03:16.812Z,9.20
2018-10-16T05:05:46.017Z,9.50
2018-10-16T05:08:15.427Z,9.89
2018-10-16T05:10:44.719Z,10.34
2018-10-16T05:13:14.018Z,10.76
2018-10-16T05:15:43.503Z,11.12
2018-10-16T05:18:12.500Z,11.48
2018-10-16T05:20:41.563Z,11.96
2018-10-16T05:23:10.927Z,12.50
2018-10-16T05:25:39.939Z,12.91
2018-10-16T05:28:09.112Z,13.36
2018-10-16T05:30:38.431Z,13.55
2018-10-16T05:33:07.515Z,14.00
2018-10-16T05:35:36.599Z,14.27
2018-10-16T05:38:05.662Z,14.68
2018-10-16T05:40:34.755Z,15.19
2018-10-16T05:43:04.092Z,15.47
2018-10-16T05:45:35.059Z,15.93
2018-10-16T05:48:04.184Z,16.33
2018-10-16T05:50:33.395Z,16.55
2018-10-16T05:53:02.736Z,16.91
2018-10-16T05:55:32.059Z,17.21
2018-10-16T05:58:01.522Z,17.57
2018-10-16T06:00:40.385Z,17.69
2018-10-16T06:03:09.770Z,17.92
2018-10-16T06:05:39.388Z,18.24
2018-10-16T06:08:08.792Z,18.33
2018-10-16T06:10:38.315Z,18.50
2018-10-16T06:13:07.482Z,18.57
2018-10-16T06:15:36.504Z,18.65
2018-10-16T06:18:05.636Z,18.58
2018-10-16T06:20:35.175Z,18.83
2018-10-16T06:23:04.728Z,18.82
2018-10-16T06:25:33.903Z,18.53
2018-10-16T06:28:20.661Z,18.68
2018-10-16T06:30:49.735Z,19.03
2018-10-16T06:33:21.753Z,19.25
2018-10-16T06:35:50.974Z,19.49
2018-10-16T06:38:20.072Z,19.09
2018-10-16T06:40:49.213Z,18.90
2018-10-16T06:43:18.193Z,18.82
2018-10-16T06:45:47.409Z,18.16
2018-10-16T06:48:16.945Z,18.42
2018-10-16T06:50:45.867Z,18.80
2018-10-16T06:53:14.995Z,18.19
2018-10-16T06:55:44.278Z,18.21
2018-10-16T06:58:13.368Z,18.07
2018-10-16T07:00:42.509Z,17.85
2018-10-16T07:03:11.682Z,18.14
2018-10-16T07:05:40.860Z,18.47
2018-10-16T07:08:10.155Z,18.21
2018-10-16T07:10:39.578Z,17.72
2018-10-16T07:13:08.763Z,17.80
2018-10-16T07:15:37.962Z,17.23
2018-10-16T07:18:07.296Z,17.31
2018-10-16T07:20:36.591Z,17.95
2018-10-16T07:23:05.575Z,17.88
2018-10-16T07:25:35.038Z,17.12
2018-10-16T07:28:04.404Z,17.15
2018-10-16T07:30:33.577Z,17.45
2018-10-16T07:33:02.948Z,17.68
2018-10-16T07:35:32.068Z,18.51
2018-10-16T07:38:01.422Z,18.29
2018-10-16T07:40:32.500Z,18.07
2018-10-16T07:43:01.656Z,18.11
2018-10-16T07:45:30.731Z,17.80
2018-10-16T07:48:00.500Z,17.60
2018-10-16T07:50:29.616Z,17.28
2018-10-16T07:52:58.543Z,17.86
2018-10-16T07:55:27.948Z,18.35
2018-10-16T07:57:57.116Z,17.70
2018-10-16T08:00:26.191Z,17.96
2018-10-16T08:02:55.626Z,17.92
2018-10-16T08:05:24.912Z,17.48
2018-10-16T08:07:54.055Z,17.22
2018-10-16T08:10:23.438Z,16.60
2018-10-16T08:12:52.468Z,17.05
2018-10-16T08:15:21.611Z,17.85
2018-10-16T08:17:51.051Z,18.07
2018-10-16T08:20:20.155Z,18.42
2018-10-16T08:22:49.287Z,18.16
2018-10-16T08:25:18.359Z,17.83
2018-10-16T08:27:47.475Z,17.43
2018-10-16T08:30:16.501Z,17.45
2018-10-16T08:32:45.803Z,17.76
2018-10-16T08:35:14.983Z,17.54
2018-10-16T08:38:27.870Z,17.93
2018-10-16T08:40:58.004Z,17.51
2018-10-16T08:43:44.691Z,17.38
2018-10-16T08:46:24.497Z,17.51
2018-10-16T08:49:04.951Z,17.49
2018-10-16T08:51:47.103Z,17.60
2018-10-16T08:54:16.375Z,17.36
2018-10-16T08:56:45.645Z,16.94
2018-10-16T08:59:15.815Z,16.89
2018-10-16T09:01:45.251Z,17.34
2018-10-16T09:04:14.712Z,17.47
2018-10-16T09:06:44.052Z,17.57
2018-10-16T09:09:15.036Z,17.57
2018-10-16T09:11:45.258Z,17.59
2018-10-16T09:14:14.895Z,17.67
2018-10-16T09:16:44.511Z,17.82
2018-10-16T09:19:13.681Z,17.95
2018-10-16T09:21:42.863Z,17.99
2018-10-16T09:24:12.205Z,17.85
2018-10-16T09:26:41.923Z,18.13
2018-10-16T09:29:10.983Z,18.26
2018-10-16T09:31:40.319Z,18.20
2018-10-16T09:34:09.495Z,18.05
2018-10-16T09:36:38.518Z,17.83
2018-10-16T09:39:10.497Z,18.04
2018-10-16T09:41:39.738Z,17.89
2018-10-16T09:44:09.027Z,18.22
2018-10-16T09:46:38.637Z,18.40
2018-10-16T09:49:07.807Z,18.33
2018-10-16T09:51:36.846Z,18.30
2018-10-16T09:54:06.283Z,18.22
2018-10-16T09:56:35.860Z,18.50
2018-10-16T09:59:05.151Z,18.37
2018-10-16T10:01:39.542Z,18.65
2018-10-16T10:04:08.663Z,18.57
2018-10-16T10:06:37.683Z,18.56
2018-10-16T10:09:10.295Z,18.56
2018-10-16T10:11:39.355Z,18.60
2018-10-16T10:14:08.450Z,18.84
2018-10-16T10:16:38.151Z,18.91
2018-10-16T10:19:07.423Z,19.06
2018-10-16T10:21:36.767Z,19.16
2018-10-16T10:24:06.337Z,19.08
2018-10-16T10:26:35.347Z,19.10
2018-10-16T10:29:04.439Z,19.30
2018-10-16T10:31:34.004Z,19.35
2018-10-16T10:34:03.179Z,19.39
2018-10-16T10:36:32.379Z,19.38
2018-10-16T10:39:01.913Z,19.43
2018-10-16T10:41:31.083Z,19.70
2018-10-16T10:44:00.075Z,19.70
2018-10-16T10:46:29.356Z,19.60
2018-10-16T10:48:58.370Z,19.71
2018-10-16T10:51:27.576Z,19.92
2018-10-16T10:53:56.787Z,20.04
2018-10-16T10:56:26.002Z,19.96
2018-10-16T10:58:55.264Z,19.99
2018-10-16T11:01:24.780Z,19.75
2018-10-16T11:03:53.965Z,19.85
2018-10-16T11:06:23.174Z,19.88
2018-10-16T11:08:52.652Z,19.97
2018-10-16T11:11:21.781Z,20.14
2018-10-16T11:13:50.773Z,20.22
2018-10-16T11:16:20.491Z,20.17
2018-10-16T11:18:49.584Z,20.29
2018-10-16T11:21:18.772Z,20.39
2018-10-16T11:23:48.107Z,20.37
2018-10-16T11:26:17.895Z,20.21
2018-10-16T11:28:46.928Z,20.05
2018-10-16T11:31:16.484Z,20.30
2018-10-16T11:33:45.780Z,20.39
2018-10-16T11:36:14.799Z,20.23
2018-10-16T11:38:44.027Z,20.37
2018-10-16T11:41:13.107Z,20.24
2018-10-16T11:43:42.238Z,20.46
2018-10-16T11:46:11.734Z,20.44
2018-10-16T11:48:40.968Z,20.68
2018-10-16T11:51:10.271Z,20.72
2018-10-16T11:53:39.718Z,20.75
2018-10-16T11:56:08.938Z,20.79
2018-10-16T11:58:37.935Z,20.78
2018-10-16T12:01:06.970Z,20.78
2018-10-16T12:03:36.093Z,20.85
2018-10-16T12:06:05.664Z,21.15
2018-10-16T12:08:35.014Z,21.08
2018-10-16T12:11:04.192Z,21.00
2018-10-16T12:13:33.490Z,20.85
2018-10-16T12:16:02.829Z,20.95
2018-10-16T12:18:37.063Z,20.99
2018-10-16T12:21:25.879Z,20.99
2018-10-16T12:23:54.912Z,21.08
2018-10-16T12:26:24.039Z,20.87
2018-10-16T12:28:53.368Z,21.01
2018-10-16T12:31:22.571Z,21.15
2018-10-16T12:33:51.673Z,21.15
2018-10-16T12:36:21.130Z,21.16
2018-10-16T12:38:50.222Z,21.09
2018-10-16T12:41:19.346Z,21.12
2018-10-16T12:43:48.992Z,21.24
2018-10-16T12:46:18.182Z,21.19
2018-10-16T12:48:47.447Z,21.22
2018-10-16T12:51:16.631Z,21.26
2018-10-16T12:53:45.621Z,21.25
2018-10-16T12:56:14.902Z,21.36
2018-10-16T12:58:44.082Z,21.43
2018-10-16T13:01:13.783Z,21.43
2018-10-16T13:03:43.113Z,21.47
2018-10-16T13:06:12.079Z,21.42
2018-10-16T13:08:41.295Z,21.38
2018-10-16T13:11:10.480Z,21.49
2018-10-16T13:13:40.000Z,21.56
2018-10-16T13:16:09.256Z,21.42
2018-10-16T13:18:38.459Z,21.43
2018-10-16T13:21:07.558Z,21.28
2018-10-16T13:23:36.905Z,21.30
2018-10-16T13:26:06.126Z,21.38
2018-10-16T13:28:36.556Z,21.56
2018-10-16T13:31:05.711Z,21.60
2018-10-16T13:33:34.895Z,21.63
2018-10-16T13:36:04.413Z,21.35
2018-10-16T13:38:33.506Z,21.15
2018-10-16T13:41:03.408Z,21.06
2018-10-16T13:43:32.684Z,21.02
2018-10-16T13:46:01.876Z,20.94
2018-10-16T13:48:31.131Z,20.84
2018-10-16T13:51:00.564Z,20.83
2018-10-16T13:53:29.643Z,20.75
2018-10-16T13:55:58.738Z,20.68
2018-10-16T13:58:28.347Z,20.59
2018-10-16T14:00:57.636Z,20.52
2018-10-16T14:03:26.863Z,20.47
2018-10-16T14:05:56.307Z,20.35
2018-10-16T14:08:25.428Z,20.26
2018-10-16T14:10:54.422Z,20.22
2018-10-16T14:13:23.534Z,20.18
2018-10-16T14:15:53.283Z,20.17
2018-10-16T14:18:22.960Z,20.13
2018-10-16T14:20:51.979Z,20.06
2018-10-16T14:23:21.282Z,20.09
2018-10-16T14:25:50.440Z,20.06
2018-10-16T14:28:19.791Z,20.01
2018-10-16T14:30:48.947Z,19.91
2018-10-16T14:33:18.265Z,19.92
2018-10-16T14:35:47.591Z,19.87
2018-10-16T14:38:16.890Z,19.70
2018-10-16T14:40:45.946Z,19.73
2018-10-16T14:43:15.067Z,19.64
2018-10-16T14:45:44.142Z,19.55
2018-10-16T14:48:13.406Z,19.41
2018-10-16T14:50:42.871Z,19.42
2018-10-16T14:53:12.160Z,19.37
2018-10-16T14:55:41.351Z,19.30
2018-10-16T14:58:10.578Z,19.30
2018-10-16T15:00:39.727Z,19.18
2018-10-16T15:03:08.830Z,19.11
2018-10-16T15:05:38.246Z,18.94
2018-10-16T15:08:07.256Z,18.88
2018-10-16T15:10:36.649Z,18.79
2018-10-16T15:13:06.091Z,18.78
2018-10-16T15:15:35.324Z,18.72
2018-10-16T15:18:04.451Z,18.60
2018-10-16T15:20:33.734Z,18.49
2018-10-16T15:23:03.020Z,18.45
2018-10-16T15:25:32.143Z,18.34
2018-10-16T15:28:01.551Z,18.29
2018-10-16T15:30:30.562Z,18.17
2018-10-16T15:32:59.743Z,18.13
2018-10-16T15:35:29.511Z,18.03
2018-10-16T15:37:58.802Z,18.02
2018-10-16T15:40:28.078Z,17.93
2018-10-16T15:42:57.611Z,17.84
2018-10-16T15:45:26.767Z,17.74
2018-10-16T15:47:55.950Z,17.70
2018-10-16T15:50:25.095Z,17.61
2018-10-16T15:52:53.986Z,17.51
2018-10-16T15:55:23.262Z,17.48
2018-10-16T15:57:52.620Z,17.37
2018-10-16T16:00:21.864Z,17.25
2018-10-16T16:02:51.089Z,17.24
2018-10-16T16:05:20.300Z,17.15
2018-10-16T16:07:49.465Z,16.99
2018-10-16T16:10:18.461Z,16.99
2018-10-16T16:12:47.615Z,16.96
2018-10-16T16:15:16.646Z,16.92
2018-10-16T16:17:45.666Z,16.88
2018-10-16T16:20:16.041Z,16.85
2018-10-16T16:22:45.261Z,16.77
2018-10-16T16:25:15.263Z,16.71
2018-10-16T16:27:44.726Z,16.64
2018-10-16T16:30:15.677Z,16.61
2018-10-16T16:32:44.990Z,16.54
2018-10-16T16:35:14.067Z,16.50
2018-10-16T16:37:43.129Z,16.52
2018-10-16T16:40:13.953Z,16.45
2018-10-16T16:42:43.267Z,16.42
2018-10-16T16:45:12.804Z,16.38
2018-10-16T16:47:42.206Z,16.34
2018-10-16T16:50:12.252Z,16.28
2018-10-16T16:52:41.699Z,16.23
2018-10-16T16:55:12.743Z,16.18
2018-10-16T16:57:42.961Z,16.14
2018-10-16T17:00:13.446Z,16.14
2018-10-16T17:02:43.878Z,16.05
2018-10-16T17:05:13.735Z,16.01
2018-10-16T17:07:43.487Z,15.96
2018-10-16T17:10:12.592Z,15.95
2018-10-16T17:12:42.090Z,15.89
2018-10-16T17:15:13.239Z,15.84
2018-10-16T17:17:42.448Z,15.83
2018-10-16T17:20:12.291Z,15.71
2018-10-16T17:22:41.580Z,15.63
2018-10-16T17:25:12.677Z,15.59
2018-10-16T17:27:42.064Z,15.61
2018-10-16T17:30:13.140Z,15.54
2018-10-16T17:32:42.538Z,15.50
2018-10-16T17:35:12.424Z,15.48
2018-10-16T17:37:42.027Z,15.51
2018-10-16T17:40:13.326Z,15.45
2018-10-16T17:42:42.359Z,15.33
2018-10-16T17:45:12.679Z,15.25
2018-10-16T17:47:42.080Z,15.27
2018-10-16T17:50:12.987Z,15.30
2018-10-16T17:52:42.068Z,15.20
2018-10-16T17:55:12.208Z,15.16
2018-10-16T17:57:41.392Z,15.15
2018-10-16T18:00:14.015Z,15.08
2018-10-16T18:02:43.647Z,15.10
2018-10-16T18:05:13.094Z,15.07
2018-10-16T18:07:42.889Z,15.00
2018-10-16T18:10:12.054Z,14.88
2018-10-16T18:12:40.870Z,14.74
2018-10-16T18:15:11.819Z,14.68
2018-10-16T18:17:41.408Z,14.64
2018-10-16T18:20:12.399Z,14.58
2018-10-16T18:22:41.385Z,14.57
2018-10-16T18:25:10.948Z,14.53
2018-10-16T18:27:39.962Z,14.44
2018-10-16T18:30:09.861Z,14.35
2018-10-16T18:32:38.995Z,14.32
2018-10-16T18:35:08.443Z,14.24
2018-10-16T18:37:37.531Z,14.23
2018-10-16T18:40:08.435Z,14.17
2018-10-16T18:42:37.980Z,14.09
2018-10-16T18:45:07.788Z,14.09
2018-10-16T18:47:36.621Z,14.08
2018-10-16T18:50:07.220Z,14.08
2018-10-16T18:52:35.967Z,14.01
2018-10-16T18:55:05.502Z,13.94
2018-10-16T18:57:34.511Z,14.00
2018-10-16T19:00:03.485Z,14.00
2018-10-16T19:02:32.718Z,14.05
2018-10-16T19:05:01.551Z,14.12
2018-10-16T19:07:30.342Z,14.15
2018-10-16T19:09:59.270Z,14.16
2018-10-16T19:12:28.663Z,14.07
2018-10-16T19:14:57.653Z,13.99
2018-10-16T19:17:26.722Z,13.85
2018-10-16T19:19:56.105Z,13.79
2018-10-16T19:22:25.068Z,13.77
2018-10-16T19:24:53.979Z,13.81
2018-10-16T19:27:23.676Z,13.86
2018-10-16T19:29:52.627Z,13.93
2018-10-16T19:32:21.497Z,14.00
2018-10-16T19:34:51.472Z,14.02
2018-10-16T19:37:20.563Z,13.98
2018-10-16T19:39:56.576Z,14.06
2018-10-16T19:42:25.542Z,14.09
2018-10-16T19:44:54.578Z,14.06
2018-10-16T19:47:23.949Z,13.97
2018-10-16T19:49:53.014Z,13.93
2018-10-16T19:52:21.983Z,13.83
2018-10-16T19:54:51.015Z,13.74
2018-10-16T19:57:20.024Z,13.65
2018-10-16T19:59:49.126Z,13.59
2018-10-16T20:02:18.591Z,13.55
2018-10-16T20:04:47.524Z,13.61
2018-10-16T20:07:16.614Z,13.61
2018-10-16T20:09:46.104Z,13.60
2018-10-16T20:12:15.017Z,13.61
2018-10-16T20:14:43.856Z,13.55
2018-10-16T20:17:13.157Z,13.40
2018-10-16T20:19:42.678Z,13.35
2018-10-16T20:22:12.647Z,13.28
2018-10-16T20:24:41.695Z,13.24
2018-10-16T20:27:11.699Z,13.16
2018-10-16T20:29:40.878Z,13.15
2018-10-16T20:32:11.063Z,13.15
2018-10-16T20:34:40.030Z,13.14
2018-10-16T20:37:09.030Z,13.10
2018-10-16T20:39:38.292Z,13.02
2018-10-16T20:42:08.121Z,12.87
2018-10-16T20:44:37.343Z,12.68
2018-10-16T20:47:06.504Z,12.57
2018-10-16T20:49:35.563Z,12.46
2018-10-16T20:52:04.423Z,12.41
2018-10-16T20:54:33.780Z,12.37
2018-10-16T20:57:02.643Z,12.28
2018-10-16T20:59:31.645Z,12.14
2018-10-16T21:02:00.963Z,11.96
2018-10-16T21:04:29.967Z,11.94
2018-10-16T21:06:59.242Z,11.85
2018-10-16T21:09:28.314Z,11.74
2018-10-16T21:11:57.230Z,11.75
2018-10-16T21:14:27.139Z,11.68
2018-10-16T21:16:56.198Z,11.61
2018-10-16T21:19:25.404Z,11.49
2018-10-16T21:21:54.362Z,11.44
2018-10-16T21:24:23.427Z,11.49
2018-10-16T21:27:01.659Z,11.41
2018-10-16T21:29:31.420Z,11.46
2018-10-16T21:32:06.693Z,11.29
2018-10-16T21:34:38.674Z,11.18
2018-10-16T21:37:07.695Z,11.10
2018-10-16T21:39:36.732Z,11.05
2018-10-16T21:42:07.376Z,11.04
2018-10-16T21:44:36.413Z,11.04
2018-10-16T21:47:05.483Z,11.06
2018-10-16T21:49:36.327Z,11.02
2018-10-16T21:52:05.347Z,10.89
2018-10-16T21:54:34.373Z,10.87
2018-10-16T21:57:03.583Z,10.95
2018-10-16T21:59:33.317Z,11.03
2018-10-16T22:02:07.458Z,11.07
2018-10-16T22:04:36.279Z,11.09
2018-10-16T22:07:05.452Z,10.95
2018-10-16T22:09:34.602Z,10.85
2018-10-16T22:12:03.982Z,10.77
2018-10-16T22:14:33.010Z,10.67
2018-10-16T22:17:02.354Z,10.62
2018-10-16T22:19:35.438Z,10.53
2018-10-16T22:22:05.924Z,10.52
2018-10-16T22:24:35.211Z,10.53
2018-10-16T22:27:03.941Z,10.50
2018-10-16T22:29:33.190Z,10.42
2018-10-16T22:32:02.286Z,10.37
2018-10-16T22:34:31.150Z,10.25
2018-10-16T22:37:00.444Z,10.22
2018-10-16T22:39:29.573Z,10.29
2018-10-16T22:41:58.546Z,10.31
2018-10-16T22:44:27.896Z,10.20
2018-10-16T22:46:56.735Z,10.12
2018-10-16T22:49:25.665Z,10.09
2018-10-16T22:51:55.085Z,10.08
2018-10-16T22:54:27.320Z,10.04
2018-10-16T22:56:56.408Z,10.01
2018-10-16T22:59:25.694Z,9.95
2018-10-16T23:01:55.020Z,10.02
2018-10-16T23:04:24.474Z,9.95
2018-10-16T23:06:53.304Z,9.90
2018-10-16T23:09:22.330Z,9.94
2018-10-16T23:11:52.155Z,9.87
2018-10-16T23:14:21.114Z,9.91
2018-10-16T23:16:49.906Z,9.87
2018-10-16T23:19:19.482Z,9.78
2018-10-16T23:21:48.418Z,9.75
2018-10-16T23:24:17.527Z,9.84
2018-10-16T23:26:47.350Z,9.90
2018-10-16T23:29:16.507Z,9.86
2018-10-16T23:31:45.267Z,9.75
2018-10-16T23:34:14.578Z,9.68
2018-10-16T23:36:44.230Z,9.63
2018-10-16T23:39:14.943Z,9.53
2018-10-16T23:41:44.584Z,9.47
2018-10-16T23:44:13.475Z,9.46
2018-10-16T23:46:42.680Z,9.50
2018-10-16T23:49:11.581Z,9.42
2018-10-16T23:51:40.834Z,9.34
2018-10-16T23:54:09.837Z,9.29
2018-10-16T23:56:38.879Z,9.33
2018-10-16T23:59:07.867Z,9.27
